createdAt,value
2019-02-26T00:00:49.698Z,44.75
2019-02-26T00:01:57.970Z,100.40
2019-02-26T00:03:04.735Z,120.87
2019-02-26T00:04:10.485Z,112.97
2019-02-26T00:05:19.352Z,91.67
2019-02-26T00:06:25.366Z,111.85
2019-02-26T00:07:33.073Z,105.90
2019-02-26T00:08:40.072Z,106.78
2019-02-26T00:09:46.489Z,66.70
2019-02-26T00:10:56.711Z,62.25
2019-02-26T00:12:02.072Z,51.18
2019-02-26T00:13:08.851Z,33.15
2019-02-26T00:14:17.716Z,46.18
2019-02-26T00:15:23.983Z,63.13
2019-02-26T00:16:35.357Z,48.80
2019-02-26T00:17:41.197Z,43.83
2019-02-26T00:18:47.044Z,48.42
2019-02-26T00:19:55.704Z,37.48
2019-02-26T00:21:02.939Z,38.08
2019-02-26T00:22:12.151Z,37.48
2019-02-26T00:23:19.799Z,42.48
2019-02-26T00:24:30.593Z,36.70
2019-02-26T00:25:33.554Z,37.38
2019-02-26T00:26:40.848Z,37.73
2019-02-26T00:28:11.125Z,51.33
2019-02-26T00:29:32.529Z,128.93
2019-02-26T00:30:55.028Z,73.52
2019-02-26T00:32:01.454Z,94.00
2019-02-26T00:33:07.203Z,84.72
2019-02-26T00:34:15.978Z,142.43
2019-02-26T00:35:23.476Z,122.42
2019-02-26T00:36:31.415Z,73.55
2019-02-26T00:37:37.942Z,55.17
2019-02-26T00:38:45.103Z,54.03
2019-02-26T00:39:54.172Z,60.73
2019-02-26T00:41:02.200Z,74.58
2019-02-26T00:42:09.313Z,64.53
2019-02-26T00:43:20.949Z,44.88
2019-02-26T00:44:27.519Z,47.13
2019-02-26T00:45:34.567Z,57.58
2019-02-26T00:46:41.771Z,43.13
2019-02-26T00:47:48.468Z,46.35
2019-02-26T00:48:56.384Z,44.27
2019-02-26T00:50:13.730Z,48.00
2019-02-26T00:51:24.446Z,56.90
2019-02-26T00:52:32.648Z,56.18
2019-02-26T00:53:39.846Z,51.23
2019-02-26T00:54:46.743Z,62.23
2019-02-26T00:55:54.333Z,40.88
2019-02-26T00:57:03.041Z,37.23
2019-02-26T00:58:08.440Z,35.65
2019-02-26T00:59:14.544Z,67.78
2019-02-26T01:00:20.234Z,89.00
2019-02-26T01:01:26.009Z,73.72
2019-02-26T01:02:37.188Z,42.08
2019-02-26T01:04:07.966Z,52.98
2019-02-26T01:05:25.714Z,76.40
2019-02-26T01:06:38.835Z,98.37
2019-02-26T01:07:47.373Z,94.52
2019-02-26T01:08:54.021Z,87.65
2019-02-26T01:10:00.882Z,65.95
2019-02-26T01:11:08.268Z,36.00
2019-02-26T01:12:16.632Z,41.15
2019-02-26T01:13:25.619Z,25.90
2019-02-26T01:14:31.473Z,23.55
2019-02-26T01:15:38.943Z,25.70
2019-02-26T01:16:48.202Z,25.02
2019-02-26T01:17:55.025Z,28.15
2019-02-26T01:19:02.144Z,28.23
2019-02-26T01:20:12.144Z,25.15
2019-02-26T01:21:22.105Z,44.65
2019-02-26T01:22:28.021Z,55.95
2019-02-26T01:23:34.742Z,68.75
2019-02-26T01:24:41.394Z,39.35
2019-02-26T01:25:47.474Z,75.42
2019-02-26T01:26:53.204Z,42.80
2019-02-26T01:28:00.481Z,71.00
2019-02-26T01:29:06.355Z,53.35
2019-02-26T01:30:23.576Z,63.45
2019-02-26T01:31:31.559Z,60.85
2019-02-26T01:32:37.604Z,44.33
2019-02-26T01:33:43.325Z,50.45
2019-02-26T01:34:49.535Z,35.52
2019-02-26T01:35:57.863Z,30.00
2019-02-26T01:37:05.958Z,36.23
2019-02-26T01:38:16.567Z,27.67
2019-02-26T01:39:50.202Z,24.87
2019-02-26T01:40:57.634Z,29.07
2019-02-26T01:42:05.395Z,24.65
2019-02-26T01:43:12.416Z,25.40
2019-02-26T01:44:19.863Z,29.32
2019-02-26T01:45:27.253Z,26.85
2019-02-26T01:46:36.581Z,31.40
2019-02-26T01:47:52.770Z,27.77
2019-02-26T01:49:10.095Z,32.33
2019-02-26T01:50:28.842Z,32.93
2019-02-26T01:51:46.933Z,30.52
2019-02-26T01:52:54.475Z,37.90
2019-02-26T01:54:01.142Z,32.93
2019-02-26T01:55:11.502Z,75.10
2019-02-26T01:56:20.036Z,188.55
2019-02-26T01:57:27.724Z,78.78
2019-02-26T01:58:56.567Z,72.42
2019-02-26T02:00:00.306Z,62.48
2019-02-26T02:01:06.015Z,62.88
2019-02-26T02:02:14.764Z,39.80
2019-02-26T02:03:20.826Z,37.48
2019-02-26T02:04:26.423Z,41.85
2019-02-26T02:05:34.422Z,42.40
2019-02-26T02:06:41.509Z,42.65
2019-02-26T02:07:51.448Z,37.98
2019-02-26T02:08:57.264Z,38.25
2019-02-26T02:10:04.082Z,36.20
2019-02-26T02:11:10.864Z,34.70
2019-02-26T02:12:17.823Z,42.27
2019-02-26T02:13:28.355Z,39.90
2019-02-26T02:14:32.455Z,40.80
2019-02-26T02:15:42.116Z,36.08
2019-02-26T02:16:48.342Z,36.33
2019-02-26T02:17:57.031Z,42.23
2019-02-26T02:19:02.584Z,40.78
2019-02-26T02:20:15.666Z,42.58
2019-02-26T02:21:24.121Z,50.65
2019-02-26T02:22:35.267Z,42.43
2019-02-26T02:23:42.181Z,42.98
2019-02-26T02:24:51.060Z,47.03
2019-02-26T02:26:02.105Z,41.75
2019-02-26T02:27:06.073Z,42.40
2019-02-26T02:28:11.736Z,43.13
2019-02-26T02:29:19.179Z,49.42
2019-02-26T02:30:30.413Z,53.23
2019-02-26T02:31:34.932Z,42.05
2019-02-26T02:32:39.715Z,40.75
2019-02-26T02:33:46.495Z,44.38
2019-02-26T02:34:58.263Z,43.10
2019-02-26T02:36:02.114Z,44.63
2019-02-26T02:37:09.344Z,44.90
2019-02-26T02:38:19.527Z,45.08
2019-02-26T02:39:26.536Z,43.92
2019-02-26T02:40:34.934Z,45.85
2019-02-26T02:41:42.111Z,44.60
2019-02-26T02:42:49.793Z,44.55
2019-02-26T02:43:56.314Z,46.73
2019-02-26T02:45:05.048Z,50.05
2019-02-26T02:46:12.041Z,47.27
2019-02-26T02:47:19.774Z,43.63
2019-02-26T02:48:26.693Z,45.60
2019-02-26T02:49:36.451Z,52.75
2019-02-26T02:50:41.940Z,46.83
2019-02-26T02:51:48.597Z,47.60
2019-02-26T02:52:56.858Z,40.98
2019-02-26T02:54:03.117Z,47.38
2019-02-26T02:55:15.532Z,46.65
2019-02-26T02:56:18.559Z,47.08
2019-02-26T02:57:26.788Z,50.80
2019-02-26T02:58:31.905Z,51.13
2019-02-26T02:59:41.741Z,49.85
2019-02-26T03:00:46.100Z,53.90
2019-02-26T03:01:54.824Z,52.05
2019-02-26T03:02:59.913Z,51.37
2019-02-26T03:04:07.272Z,50.23
2019-02-26T03:05:14.104Z,47.62
2019-02-26T03:06:20.403Z,48.78
2019-02-26T03:07:29.391Z,47.60
2019-02-26T03:08:35.230Z,51.70
2019-02-26T03:09:43.745Z,48.20
2019-02-26T03:10:51.154Z,53.10
2019-02-26T03:11:58.767Z,52.85
2019-02-26T03:13:05.063Z,47.75
2019-02-26T03:14:13.856Z,55.48
2019-02-26T03:15:21.861Z,47.85
2019-02-26T03:16:28.270Z,48.92
2019-02-26T03:17:34.488Z,49.18
2019-02-26T03:18:43.004Z,53.08
2019-02-26T03:19:49.412Z,46.63
2019-02-26T03:20:56.729Z,49.08
2019-02-26T03:22:03.955Z,50.70
2019-02-26T03:23:15.069Z,54.03
2019-02-26T03:24:19.122Z,46.60
2019-02-26T03:25:27.003Z,46.92
2019-02-26T03:26:33.109Z,55.05
2019-02-26T03:27:40.578Z,49.45
2019-02-26T03:28:48.175Z,49.90
2019-02-26T03:29:56.219Z,46.80
2019-02-26T03:31:00.875Z,50.73
2019-02-26T03:32:06.825Z,49.77
2019-02-26T03:33:12.905Z,52.93
2019-02-26T03:34:24.236Z,50.00
2019-02-26T03:35:26.293Z,53.42
2019-02-26T03:36:34.208Z,56.60
2019-02-26T03:37:40.124Z,52.78
2019-02-26T03:38:49.051Z,57.08
2019-02-26T03:39:57.311Z,53.75
2019-02-26T03:41:03.700Z,50.43
2019-02-26T03:42:12.919Z,53.50
2019-02-26T03:43:18.445Z,50.73
2019-02-26T03:44:29.531Z,59.70
2019-02-26T03:45:32.842Z,70.70
2019-02-26T03:46:39.450Z,56.75
2019-02-26T03:47:45.802Z,50.03
2019-02-26T03:48:52.706Z,54.10
2019-02-26T03:49:59.514Z,49.05
2019-02-26T03:51:07.561Z,48.08
2019-02-26T03:52:15.858Z,47.15
2019-02-26T03:53:25.549Z,45.85
2019-02-26T03:54:31.034Z,44.38
2019-02-26T03:55:39.085Z,50.63
2019-02-26T03:56:45.594Z,49.88
2019-02-26T03:57:54.555Z,41.48
2019-02-26T03:59:00.137Z,45.80
2019-02-26T04:00:14.949Z,46.37
2019-02-26T04:01:21.587Z,47.00
2019-02-26T04:02:27.710Z,43.90
2019-02-26T04:03:35.274Z,46.15
2019-02-26T04:04:41.733Z,51.02
2019-02-26T04:05:47.483Z,45.67
2019-02-26T04:06:55.673Z,39.53
2019-02-26T04:08:03.668Z,50.67
2019-02-26T04:09:10.882Z,39.78
2019-02-26T04:10:17.837Z,49.65
2019-02-26T04:11:27.693Z,44.60
2019-02-26T04:12:39.187Z,49.08
2019-02-26T04:13:43.443Z,46.13
2019-02-26T04:15:12.442Z,45.80
2019-02-26T04:16:19.443Z,46.53
2019-02-26T04:17:28.598Z,46.37
2019-02-26T04:18:35.165Z,50.12
2019-02-26T04:19:44.455Z,46.15
2019-02-26T04:20:50.445Z,46.53
2019-02-26T04:22:30.382Z,43.42
2019-02-26T04:23:38.947Z,47.33
2019-02-26T04:24:46.304Z,44.13
2019-02-26T04:26:08.735Z,42.17
2019-02-26T04:27:57.007Z,44.73
2019-02-26T04:29:23.578Z,42.40
2019-02-26T04:30:59.723Z,46.18
2019-02-26T04:32:40.887Z,43.42
2019-02-26T04:34:13.594Z,47.75
2019-02-26T04:35:22.267Z,56.90
2019-02-26T04:36:41.614Z,47.05
2019-02-26T04:38:28.243Z,42.10
2019-02-26T04:39:47.778Z,46.00
2019-02-26T04:41:00.400Z,51.28
2019-02-26T04:42:35.233Z,45.05
2019-02-26T04:44:06.105Z,42.50
2019-02-26T04:45:32.801Z,49.23
2019-02-26T04:46:44.941Z,43.80
2019-02-26T04:48:01.543Z,41.68
2019-02-26T04:49:08.461Z,42.40
2019-02-26T04:50:15.223Z,47.60
2019-02-26T04:51:22.161Z,42.53
2019-02-26T04:52:31.612Z,41.50
2019-02-26T04:53:37.677Z,45.10
2019-02-26T04:54:44.674Z,43.08
2019-02-26T04:55:52.636Z,48.50
2019-02-26T04:56:58.450Z,40.20
2019-02-26T04:58:04.226Z,46.40
2019-02-26T04:59:12.331Z,43.68
2019-02-26T05:00:18.173Z,45.55
2019-02-26T05:01:23.919Z,43.60
2019-02-26T05:02:29.946Z,43.98
2019-02-26T05:03:36.195Z,37.90
2019-02-26T05:04:42.362Z,38.90
2019-02-26T05:05:51.330Z,41.53
2019-02-26T05:06:55.974Z,43.38
2019-02-26T05:08:04.224Z,43.68
2019-02-26T05:09:10.594Z,46.55
2019-02-26T05:10:16.374Z,48.38
2019-02-26T05:11:31.515Z,41.73
2019-02-26T05:12:34.173Z,42.35
2019-02-26T05:13:39.308Z,38.45
2019-02-26T05:14:46.374Z,35.73
2019-02-26T05:15:52.935Z,38.55
2019-02-26T05:17:00.712Z,37.20
2019-02-26T05:18:07.613Z,38.75
2019-02-26T05:19:16.413Z,38.53
2019-02-26T05:20:21.882Z,38.05
2019-02-26T05:21:30.427Z,40.65
2019-02-26T05:22:37.028Z,42.40
2019-02-26T05:23:43.832Z,47.67
2019-02-26T05:24:52.794Z,43.98
2019-02-26T05:26:02.884Z,42.03
2019-02-26T05:27:16.415Z,46.83
2019-02-26T05:28:22.524Z,81.05
2019-02-26T05:29:28.382Z,45.23
2019-02-26T05:30:34.326Z,46.63
2019-02-26T05:31:40.864Z,46.30
2019-02-26T05:32:47.435Z,40.92
2019-02-26T05:33:55.337Z,42.25
2019-02-26T05:35:00.590Z,48.58
2019-02-26T05:36:08.799Z,66.77
2019-02-26T05:37:14.695Z,55.10
2019-02-26T05:38:20.935Z,39.90
2019-02-26T05:39:28.841Z,75.72
2019-02-26T05:40:37.427Z,45.28
2019-02-26T05:41:43.904Z,60.43
2019-02-26T05:42:50.333Z,58.25
2019-02-26T05:43:58.376Z,61.55
2019-02-26T05:45:09.125Z,47.95
2019-02-26T05:46:16.031Z,50.58
2019-02-26T05:47:24.071Z,48.90
2019-02-26T05:48:31.114Z,46.60
2019-02-26T05:49:40.736Z,46.45
2019-02-26T05:50:46.202Z,50.67
2019-02-26T05:51:53.500Z,44.03
2019-02-26T05:53:01.848Z,46.25
2019-02-26T05:54:12.268Z,44.93
2019-02-26T05:55:19.773Z,40.33
2019-02-26T05:56:25.502Z,48.33
2019-02-26T05:57:32.592Z,47.95
2019-02-26T05:58:39.486Z,51.02
2019-02-26T05:59:46.707Z,49.35
2019-02-26T06:00:53.986Z,42.65
2019-02-26T06:01:59.694Z,49.58
2019-02-26T06:03:07.225Z,44.48
2019-02-26T06:04:15.029Z,42.62
2019-02-26T06:05:23.249Z,47.20
2019-02-26T06:06:28.826Z,50.35
2019-02-26T06:07:36.788Z,45.05
2019-02-26T06:08:42.636Z,44.27
2019-02-26T06:09:50.935Z,49.13
2019-02-26T06:10:59.085Z,51.13
2019-02-26T06:12:05.374Z,56.58
2019-02-26T06:13:13.523Z,49.50
2019-02-26T06:14:20.522Z,55.00
2019-02-26T06:15:28.796Z,45.45
2019-02-26T06:16:35.445Z,42.03
2019-02-26T06:17:43.827Z,61.30
2019-02-26T06:18:51.891Z,51.65
2019-02-26T06:20:20.584Z,44.75
2019-02-26T06:21:27.271Z,47.90
2019-02-26T06:22:34.645Z,43.42
2019-02-26T06:23:43.142Z,54.70
2019-02-26T06:24:49.124Z,47.00
2019-02-26T06:25:59.087Z,48.42
2019-02-26T06:27:04.084Z,49.77
2019-02-26T06:28:13.398Z,51.40
2019-02-26T06:29:22.275Z,48.58
2019-02-26T06:30:26.194Z,52.73
2019-02-26T06:31:31.934Z,57.98
2019-02-26T06:32:41.978Z,48.58
2019-02-26T06:33:47.803Z,45.70
2019-02-26T06:34:55.625Z,46.80
2019-02-26T06:36:03.683Z,48.40
2019-02-26T06:37:23.911Z,43.45
2019-02-26T06:38:36.315Z,44.88
2019-02-26T06:39:42.354Z,46.53
2019-02-26T06:40:51.382Z,51.77
2019-02-26T06:41:57.551Z,45.23
2019-02-26T06:43:16.816Z,45.65
2019-02-26T06:44:26.169Z,45.63
2019-02-26T06:45:35.182Z,54.18
2019-02-26T06:46:41.514Z,51.30
2019-02-26T06:47:58.561Z,51.98
2019-02-26T06:49:04.022Z,43.35
2019-02-26T06:50:13.122Z,56.02
2019-02-26T06:51:21.935Z,45.33
2019-02-26T06:52:35.061Z,75.20
2019-02-26T06:53:40.499Z,71.85
2019-02-26T06:54:50.177Z,61.48
2019-02-26T06:55:55.205Z,54.38
2019-02-26T06:57:01.812Z,47.50
2019-02-26T06:58:27.921Z,47.50
2019-02-26T06:59:36.877Z,48.52
2019-02-26T07:00:43.689Z,58.40
2019-02-26T07:01:49.955Z,62.43
2019-02-26T07:02:55.896Z,56.37
2019-02-26T07:04:03.482Z,56.25
2019-02-26T07:05:12.966Z,65.92
2019-02-26T07:06:22.809Z,58.00
2019-02-26T07:07:27.266Z,46.10
2019-02-26T07:08:34.441Z,51.83
2019-02-26T07:09:41.960Z,50.83
2019-02-26T07:10:49.864Z,51.23
2019-02-26T07:11:56.572Z,48.13
2019-02-26T07:13:04.314Z,87.92
2019-02-26T07:14:10.421Z,53.08
2019-02-26T07:15:16.990Z,49.70
2019-02-26T07:16:22.922Z,61.37
2019-02-26T07:17:31.862Z,48.90
2019-02-26T07:18:38.824Z,62.38
2019-02-26T07:19:46.312Z,54.75
2019-02-26T07:20:57.241Z,55.88
2019-02-26T07:22:01.130Z,49.05
2019-02-26T07:23:10.133Z,56.63
2019-02-26T07:24:18.128Z,45.58
2019-02-26T07:25:26.595Z,65.30
2019-02-26T07:26:33.234Z,53.90
2019-02-26T07:27:40.304Z,46.18
2019-02-26T07:28:48.638Z,50.83
2019-02-26T07:29:53.834Z,59.05
2019-02-26T07:31:00.383Z,48.68
2019-02-26T07:32:07.151Z,53.08
2019-02-26T07:33:14.998Z,55.98
2019-02-26T07:34:22.315Z,55.65
2019-02-26T07:35:30.290Z,56.33
2019-02-26T07:36:35.635Z,52.17
2019-02-26T07:37:41.910Z,49.80
2019-02-26T07:38:51.384Z,82.95
2019-02-26T07:39:56.355Z,52.93
2019-02-26T07:41:03.786Z,46.95
2019-02-26T07:42:11.600Z,52.80
2019-02-26T07:43:19.971Z,47.48
2019-02-26T07:44:28.343Z,47.45
2019-02-26T07:45:35.395Z,48.55
2019-02-26T07:46:43.207Z,45.33
2019-02-26T07:47:53.473Z,48.42
2019-02-26T07:49:01.917Z,45.85
2019-02-26T07:50:14.564Z,47.98
2019-02-26T07:51:21.455Z,48.30
2019-02-26T07:52:28.806Z,52.53
2019-02-26T07:53:37.031Z,52.17
2019-02-26T07:54:44.706Z,50.00
2019-02-26T07:55:52.584Z,52.48
2019-02-26T07:57:02.687Z,52.83
2019-02-26T07:58:09.167Z,55.05
2019-02-26T07:59:16.672Z,53.58
2019-02-26T08:00:24.573Z,48.90
2019-02-26T08:01:30.388Z,49.70
2019-02-26T08:02:37.304Z,45.80
2019-02-26T08:03:46.443Z,50.48
2019-02-26T08:04:51.205Z,49.42
2019-02-26T08:05:56.923Z,53.60
2019-02-26T08:07:03.793Z,56.68
2019-02-26T08:08:10.188Z,49.25
2019-02-26T08:09:19.407Z,51.92
2019-02-26T08:10:27.511Z,52.85
2019-02-26T08:11:36.236Z,51.25
2019-02-26T08:12:43.732Z,47.98
2019-02-26T08:13:51.713Z,46.28
2019-02-26T08:14:58.506Z,47.85
2019-02-26T08:16:05.201Z,43.93
2019-02-26T08:17:12.413Z,45.35
2019-02-26T08:18:20.804Z,44.60
2019-02-26T08:19:29.438Z,46.37
2019-02-26T08:20:37.504Z,46.33
2019-02-26T08:21:47.367Z,47.33
2019-02-26T08:22:54.604Z,49.38
2019-02-26T08:24:02.452Z,45.63
2019-02-26T08:25:11.007Z,46.93
2019-02-26T08:26:19.841Z,44.33
2019-02-26T08:27:26.277Z,46.87
2019-02-26T08:28:38.375Z,50.67
2019-02-26T08:29:42.765Z,39.70
2019-02-26T08:30:49.899Z,48.90
2019-02-26T08:31:57.503Z,40.70
2019-02-26T08:33:05.260Z,42.35
2019-02-26T08:34:13.540Z,43.00
2019-02-26T08:35:19.872Z,43.23
2019-02-26T08:36:26.326Z,45.93
2019-02-26T08:37:32.067Z,40.40
2019-02-26T08:38:38.085Z,44.50
2019-02-26T08:39:44.094Z,47.20
2019-02-26T08:40:50.407Z,43.07
2019-02-26T08:42:05.794Z,42.95
2019-02-26T08:43:12.245Z,45.37
2019-02-26T08:44:18.672Z,40.87
2019-02-26T08:45:25.909Z,38.98
2019-02-26T08:46:32.970Z,41.17
2019-02-26T08:47:39.325Z,43.30
2019-02-26T08:48:48.282Z,42.13
2019-02-26T08:49:55.392Z,48.47
2019-02-26T08:51:05.411Z,49.53
2019-02-26T08:52:10.187Z,43.27
2019-02-26T08:53:17.073Z,39.83
2019-02-26T08:54:26.073Z,41.07
2019-02-26T08:55:32.494Z,37.43
2019-02-26T08:56:41.006Z,40.77
2019-02-26T08:57:51.263Z,38.63
2019-02-26T08:58:55.569Z,39.00
2019-02-26T09:00:01.273Z,36.80
2019-02-26T09:01:08.313Z,38.40
2019-02-26T09:02:14.232Z,31.03
2019-02-26T09:03:20.515Z,42.23
2019-02-26T09:04:27.015Z,32.47
2019-02-26T09:05:34.489Z,33.30
2019-02-26T09:06:40.632Z,33.20
2019-02-26T09:07:49.778Z,33.97
2019-02-26T09:08:55.064Z,32.13
2019-02-26T09:10:02.772Z,30.67
2019-02-26T09:11:10.889Z,35.23
2019-02-26T09:12:17.606Z,36.50
2019-02-26T09:13:25.652Z,33.17
2019-02-26T09:14:34.424Z,37.13
2019-02-26T09:15:43.071Z,37.43
2019-02-26T09:16:51.918Z,35.40
2019-02-26T09:17:58.275Z,33.83
2019-02-26T09:19:05.205Z,31.10
2019-02-26T09:20:18.258Z,36.37
2019-02-26T09:21:26.460Z,31.57
2019-02-26T09:22:33.564Z,30.60
2019-02-26T09:23:40.805Z,33.60
2019-02-26T09:24:49.403Z,35.53
2019-02-26T09:25:57.037Z,35.23
2019-02-26T09:27:05.812Z,34.53
2019-02-26T09:28:12.452Z,29.67
2019-02-26T09:29:19.656Z,35.00
2019-02-26T09:30:25.626Z,34.20
2019-02-26T09:31:31.805Z,35.53
2019-02-26T09:32:40.270Z,31.87
2019-02-26T09:33:45.631Z,32.27
2019-02-26T09:34:52.015Z,40.47
2019-02-26T09:35:58.773Z,32.20
2019-02-26T09:37:07.904Z,35.10
2019-02-26T09:38:15.134Z,34.07
2019-02-26T09:39:20.885Z,29.43
2019-02-26T09:40:29.076Z,32.40
2019-02-26T09:41:38.569Z,38.40
2019-02-26T09:42:47.199Z,38.20
2019-02-26T09:43:54.213Z,30.20
2019-02-26T09:45:01.190Z,31.33
2019-02-26T09:46:13.889Z,33.73
2019-02-26T09:47:21.347Z,40.33
2019-02-26T09:48:28.213Z,30.00
2019-02-26T09:49:35.709Z,32.73
2019-02-26T09:50:44.312Z,31.23
2019-02-26T09:51:51.832Z,29.20
2019-02-26T09:52:59.459Z,37.77
2019-02-26T09:54:08.085Z,36.97
2019-02-26T09:55:17.745Z,32.93
2019-02-26T09:56:24.435Z,29.70
2019-02-26T09:57:31.005Z,33.70
2019-02-26T09:58:40.260Z,34.50
2019-02-26T09:59:46.933Z,29.83
2019-02-26T10:00:54.040Z,29.73
2019-02-26T10:02:01.345Z,31.07
2019-02-26T10:03:10.308Z,32.13
2019-02-26T10:04:17.211Z,28.13
2019-02-26T10:05:22.914Z,29.57
2019-02-26T10:06:28.845Z,35.43
2019-02-26T10:07:36.171Z,34.80
2019-02-26T10:08:44.278Z,30.93
2019-02-26T10:09:51.193Z,30.67
2019-02-26T10:10:59.672Z,32.43
2019-02-26T10:12:07.521Z,28.07
2019-02-26T10:13:13.205Z,32.30
2019-02-26T10:14:19.873Z,31.60
2019-02-26T10:15:26.965Z,33.37
2019-02-26T10:16:33.091Z,36.90
2019-02-26T10:17:40.816Z,34.87
2019-02-26T10:18:49.512Z,34.93
2019-02-26T10:19:56.864Z,34.97
2019-02-26T10:21:06.792Z,35.37
2019-02-26T10:22:14.165Z,111.13
2019-02-26T10:23:21.708Z,149.27
2019-02-26T10:24:30.179Z,38.53
2019-02-26T10:25:38.590Z,35.60
2019-02-26T10:26:44.673Z,28.83
2019-02-26T10:27:51.395Z,34.23
2019-02-26T10:29:03.886Z,24.07
2019-02-26T10:30:08.430Z,24.17
2019-02-26T10:31:14.519Z,26.17
2019-02-26T10:32:20.320Z,24.60
2019-02-26T10:33:26.273Z,29.53
2019-02-26T10:34:33.135Z,22.03
2019-02-26T10:35:42.150Z,19.80
2019-02-26T10:36:51.295Z,17.13
2019-02-26T10:38:02.835Z,20.83
2019-02-26T10:39:08.509Z,18.60
2019-02-26T10:40:17.123Z,18.90
2019-02-26T10:41:23.326Z,18.90
2019-02-26T10:42:39.445Z,15.83
2019-02-26T10:43:37.449Z,16.57
2019-02-26T10:44:44.035Z,29.00
2019-02-26T10:45:52.921Z,20.27
2019-02-26T10:47:01.205Z,20.27
2019-02-26T10:48:07.766Z,22.40
2019-02-26T10:49:14.645Z,54.93
2019-02-26T10:50:25.559Z,53.30
2019-02-26T10:51:31.246Z,33.17
2019-02-26T10:52:37.805Z,101.07
2019-02-26T10:53:43.925Z,63.10
2019-02-26T10:54:51.326Z,50.60
2019-02-26T10:55:57.209Z,37.20
2019-02-26T10:57:07.444Z,67.90
2019-02-26T10:58:13.312Z,98.33
2019-02-26T10:59:19.746Z,77.00
2019-02-26T11:00:31.097Z,82.23
2019-02-26T11:01:35.926Z,101.83
2019-02-26T11:02:43.280Z,146.40
2019-02-26T11:03:52.159Z,81.80
2019-02-26T11:04:56.867Z,82.40
2019-02-26T11:06:04.634Z,77.73
2019-02-26T11:07:14.051Z,103.23
2019-02-26T11:08:20.775Z,99.20
2019-02-26T11:09:29.877Z,130.50
2019-02-26T11:10:34.526Z,99.63
2019-02-26T11:11:42.209Z,137.93
2019-02-26T11:12:50.432Z,50.83
2019-02-26T11:13:56.393Z,154.40
2019-02-26T11:15:04.473Z,69.80
2019-02-26T11:16:10.814Z,79.00
2019-02-26T11:17:17.889Z,122.17
2019-02-26T11:18:24.992Z,98.47
2019-02-26T11:19:33.841Z,164.63
2019-02-26T11:20:39.705Z,139.57
2019-02-26T11:21:47.518Z,133.07
2019-02-26T11:22:54.134Z,136.83
2019-02-26T11:24:03.523Z,90.47
2019-02-26T11:25:13.350Z,155.47
2019-02-26T11:26:21.005Z,104.87
2019-02-26T11:27:26.913Z,79.70
2019-02-26T11:28:38.092Z,118.57
2019-02-26T11:29:41.065Z,78.83
2019-02-26T11:30:49.010Z,81.67
2019-02-26T11:31:54.866Z,167.17
2019-02-26T11:33:04.735Z,111.07
2019-02-26T11:34:11.015Z,106.10
2019-02-26T11:35:24.630Z,122.47
2019-02-26T11:36:33.517Z,67.77
2019-02-26T11:37:42.254Z,111.50
2019-02-26T11:38:47.985Z,76.57
2019-02-26T11:39:55.101Z,57.27
2019-02-26T11:41:01.594Z,100.63
2019-02-26T11:42:07.371Z,92.07
2019-02-26T11:43:14.983Z,45.27
2019-02-26T11:44:23.416Z,26.13
2019-02-26T11:45:32.849Z,29.60
2019-02-26T11:46:39.086Z,36.57
2019-02-26T11:47:46.319Z,102.77
2019-02-26T11:48:54.955Z,40.27
2019-02-26T11:50:02.770Z,64.23
2019-02-26T11:51:09.446Z,110.90
2019-02-26T11:52:19.558Z,24.93
2019-02-26T11:53:24.933Z,140.47
2019-02-26T11:54:35.011Z,51.77
2019-02-26T11:55:42.472Z,56.40
2019-02-26T11:56:49.825Z,47.33
2019-02-26T11:57:56.520Z,38.80
2019-02-26T11:59:06.531Z,47.17
2019-02-26T12:00:24.208Z,44.87
2019-02-26T12:01:24.825Z,88.73
2019-02-26T12:02:33.813Z,60.07
2019-02-26T12:03:38.975Z,51.43
2019-02-26T12:04:45.798Z,23.53
2019-02-26T12:05:53.419Z,34.37
2019-02-26T12:07:01.825Z,44.30
2019-02-26T12:08:07.293Z,128.53
2019-02-26T12:09:14.287Z,76.00
2019-02-26T12:10:21.715Z,66.80
2019-02-26T12:11:27.601Z,41.17
2019-02-26T12:12:34.260Z,46.90
2019-02-26T12:13:44.715Z,37.37
2019-02-26T12:14:53.307Z,35.20
2019-02-26T12:16:00.246Z,38.33
2019-02-26T12:17:06.407Z,22.17
2019-02-26T12:18:14.953Z,46.13
2019-02-26T12:19:23.019Z,75.07
2019-02-26T12:20:28.486Z,49.50
2019-02-26T12:21:36.931Z,68.37
2019-02-26T12:22:44.697Z,78.33
2019-02-26T12:23:50.241Z,30.73
2019-02-26T12:24:58.809Z,34.80
2019-02-26T12:26:04.042Z,46.23
2019-02-26T12:27:14.620Z,36.97
2019-02-26T12:28:18.695Z,48.63
2019-02-26T12:29:27.795Z,41.80
2019-02-26T12:30:35.035Z,28.70
2019-02-26T12:31:40.546Z,30.70
2019-02-26T12:32:47.552Z,25.03
2019-02-26T12:33:54.778Z,32.80
2019-02-26T12:35:03.308Z,27.07
2019-02-26T12:36:10.204Z,37.03
2019-02-26T12:37:16.186Z,37.23
2019-02-26T12:38:22.366Z,99.27
2019-02-26T12:39:31.222Z,41.50
2019-02-26T12:40:37.921Z,22.40
2019-02-26T12:42:52.093Z,55.03
2019-02-26T12:44:01.291Z,30.80
2019-02-26T12:45:13.602Z,29.00
2019-02-26T12:46:19.782Z,42.33
2019-02-26T12:47:27.747Z,32.63
2019-02-26T12:48:37.839Z,39.77
2019-02-26T12:49:45.046Z,53.70
2019-02-26T12:50:51.961Z,40.33
2019-02-26T12:51:59.830Z,39.43
2019-02-26T12:53:08.737Z,45.37
2019-02-26T12:54:15.708Z,22.80
2019-02-26T12:55:28.551Z,15.80
2019-02-26T12:56:33.925Z,30.10
2019-02-26T12:57:38.274Z,22.30
2019-02-26T12:58:48.584Z,17.67
2019-02-26T12:59:53.214Z,32.30
2019-02-26T13:00:59.178Z,29.00
2019-02-26T13:03:15.969Z,28.90
2019-02-26T13:04:24.806Z,34.57
2019-02-26T13:05:28.767Z,34.10
2019-02-26T13:06:37.518Z,29.27
2019-02-26T13:07:42.113Z,55.63
2019-02-26T13:08:50.815Z,40.67
2019-02-26T13:10:01.013Z,44.67
2019-02-26T13:11:04.426Z,33.03
2019-02-26T13:12:12.443Z,27.10
2019-02-26T13:13:18.294Z,32.00
2019-02-26T13:14:25.053Z,24.83
2019-02-26T13:15:32.114Z,28.17
2019-02-26T13:16:37.967Z,28.93
2019-02-26T13:17:47.874Z,26.33
2019-02-26T13:18:58.580Z,63.87
2019-02-26T13:20:05.738Z,52.17
2019-02-26T13:21:13.460Z,67.57
2019-02-26T13:22:20.300Z,55.83
2019-02-26T13:23:25.468Z,32.40
2019-02-26T13:24:32.115Z,62.00
2019-02-26T13:25:38.027Z,36.10
2019-02-26T13:26:50.222Z,70.00
2019-02-26T13:27:52.526Z,55.13
2019-02-26T13:29:00.477Z,70.17
2019-02-26T13:30:09.973Z,115.67
2019-02-26T13:31:19.134Z,31.63
2019-02-26T13:32:26.220Z,21.90
2019-02-26T13:33:35.174Z,52.13
2019-02-26T13:34:38.874Z,45.40
2019-02-26T13:35:50.680Z,21.20
2019-02-26T13:36:56.648Z,89.80
2019-02-26T13:38:03.136Z,101.07
2019-02-26T13:39:10.081Z,51.17
2019-02-26T13:40:24.853Z,30.23
2019-02-26T13:41:38.400Z,14.27
2019-02-26T13:42:39.092Z,32.53
2019-02-26T13:43:44.769Z,28.53
2019-02-26T13:44:52.206Z,48.37
2019-02-26T13:45:58.633Z,44.63
2019-02-26T13:47:04.588Z,37.30
2019-02-26T13:48:11.148Z,29.87
2019-02-26T13:49:17.275Z,35.53
2019-02-26T13:50:32.293Z,14.23
2019-02-26T13:51:38.066Z,17.07
2019-02-26T13:52:44.715Z,13.53
2019-02-26T13:53:51.240Z,17.37
2019-02-26T13:54:56.954Z,18.50
2019-02-26T13:56:03.353Z,17.20
2019-02-26T13:57:09.567Z,13.13
2019-02-26T13:58:17.106Z,21.93
2019-02-26T13:59:24.533Z,18.53
2019-02-26T14:00:30.931Z,22.47
2019-02-26T14:01:36.806Z,21.07
2019-02-26T14:02:42.773Z,19.63
2019-02-26T14:03:48.454Z,18.60
2019-02-26T14:04:54.273Z,21.57
2019-02-26T14:05:59.966Z,21.67
2019-02-26T14:07:05.706Z,16.67
2019-02-26T14:08:11.475Z,21.00
2019-02-26T14:09:17.186Z,25.33
2019-02-26T14:10:24.806Z,21.97
2019-02-26T14:11:30.695Z,41.33
2019-02-26T14:12:36.574Z,39.27
2019-02-26T14:13:44.026Z,21.07
2019-02-26T14:14:50.266Z,15.07
2019-02-26T14:15:56.853Z,22.73
2019-02-26T14:17:03.015Z,16.80
2019-02-26T14:18:09.616Z,20.90
2019-02-26T14:19:16.689Z,15.03
2019-02-26T14:20:22.390Z,22.30
2019-02-26T14:21:28.646Z,19.60
2019-02-26T14:22:37.256Z,17.83
2019-02-26T14:23:43.794Z,39.37
2019-02-26T14:24:50.387Z,19.80
2019-02-26T14:25:56.433Z,17.30
2019-02-26T14:27:02.528Z,20.73
2019-02-26T14:28:08.733Z,24.63
2019-02-26T14:29:14.461Z,33.63
2019-02-26T14:30:26.726Z,22.17
2019-02-26T14:31:32.808Z,24.73
2019-02-26T14:32:38.746Z,26.10
2019-02-26T14:33:44.813Z,29.73
2019-02-26T14:34:51.166Z,33.60
2019-02-26T14:35:56.994Z,29.13
2019-02-26T14:37:02.747Z,22.93
2019-02-26T14:38:08.626Z,24.33
2019-02-26T14:39:14.513Z,20.57
2019-02-26T14:40:21.815Z,18.20